sensor_id;sensor_type;location;lat;lon;timestamp;P1;durP1;ratioP1;P2;durP2;ratioP2
75048;SDS011;63803;53.120;8.764;2022-10-16T00:01:24;2.85;;;2.50;;
75048;SDS011;63803;53.120;8.764;2022-10-16T00:03:51;2.60;;;2.40;;
75048;SDS011;63803;53.120;8.764;2022-10-16T00:06:19;3.42;;;2.63;;
75048;SDS011;63803;53.120;8.764;2022-10-16T00:08:46;5.07;;;2.67;;
75048;SDS011;63803;53.120;8.764;2022-10-16T00:11:19;3.47;;;2.67;;
75048;SDS011;63803;53.120;8.764;2022-10-16T00:13:48;4.38;;;3.00;;
75048;SDS011;63803;53.120;8.764;2022-10-16T00:16:16;5.32;;;2.80;;
75048;SDS011;63803;53.120;8.764;2022-10-16T00:18:42;2.97;;;2.53;;
75048;SDS011;63803;53.120;8.764;2022-10-16T00:21:13;4.35;;;2.60;;
75048;SDS011;63803;53.120;8.764;2022-10-16T00:23:40;3.50;;;2.47;;
75048;SDS011;63803;53.120;8.764;2022-10-16T00:26:08;4.50;;;2.63;;
75048;SDS011;63803;53.120;8.764;2022-10-16T00:28:36;3.08;;;2.63;;
75048;SDS011;63803;53.120;8.764;2022-10-16T00:31:03;2.95;;;2.47;;
75048;SDS011;63803;53.120;8.764;2022-10-16T00:33:33;3.35;;;2.47;;
75048;SDS011;63803;53.120;8.764;2022-10-16T00:36:00;4.47;;;2.10;;
75048;SDS011;63803;53.120;8.764;2022-10-16T00:38:27;2.75;;;2.35;;
75048;SDS011;63803;53.120;8.764;2022-10-16T00:40:53;6.82;;;2.40;;
75048;SDS011;63803;53.120;8.764;2022-10-16T00:43:36;2.40;;;2.17;;
75048;SDS011;63803;53.120;8.764;2022-10-16T00:46:08;2.97;;;2.50;;
75048;SDS011;63803;53.120;8.764;2022-10-16T00:48:51;3.10;;;2.35;;
75048;SDS011;63803;53.120;8.764;2022-10-16T00:51:21;2.95;;;2.30;;
75048;SDS011;63803;53.120;8.764;2022-10-16T00:53:53;2.58;;;1.95;;
75048;SDS011;63803;53.120;8.764;2022-10-16T00:56:20;3.38;;;2.38;;
75048;SDS011;63803;53.120;8.764;2022-10-16T00:58:46;3.45;;;2.28;;
75048;SDS011;63803;53.120;8.764;2022-10-16T01:01:12;4.22;;;2.33;;
75048;SDS011;63803;53.120;8.764;2022-10-16T01:03:38;2.25;;;2.05;;
75048;SDS011;63803;53.120;8.764;2022-10-16T01:12:03;2.20;;;1.77;;
75048;SDS011;63803;53.120;8.764;2022-10-16T01:15:05;3.67;;;2.38;;
75048;SDS011;63803;53.120;8.764;2022-10-16T01:18:30;3.08;;;2.00;;
75048;SDS011;63803;53.120;8.764;2022-10-16T01:20:35;3.15;;;2.17;;
75048;SDS011;63803;53.120;8.764;2022-10-16T01:23:15;3.38;;;2.33;;
75048;SDS011;63803;53.120;8.764;2022-10-16T01:28:27;2.95;;;2.03;;
75048;SDS011;63803;53.120;8.764;2022-10-16T01:30:58;3.33;;;2.20;;
75048;SDS011;63803;53.120;8.764;2022-10-16T01:33:27;2.92;;;1.90;;
75048;SDS011;63803;53.120;8.764;2022-10-16T01:36:06;4.22;;;1.90;;
75048;SDS011;63803;53.120;8.764;2022-10-16T01:38:47;4.35;;;2.13;;
75048;SDS011;63803;53.120;8.764;2022-10-16T01:41:19;2.40;;;2.00;;
75048;SDS011;63803;53.120;8.764;2022-10-16T01:43:55;1.90;;;1.80;;
75048;SDS011;63803;53.120;8.764;2022-10-16T01:46:22;4.13;;;1.90;;
75048;SDS011;63803;53.120;8.764;2022-10-16T01:48:49;5.25;;;1.98;;
75048;SDS011;63803;53.120;8.764;2022-10-16T01:51:17;2.25;;;1.80;;
75048;SDS011;63803;53.120;8.764;2022-10-16T01:53:48;2.35;;;1.83;;
75048;SDS011;63803;53.120;8.764;2022-10-16T01:56:17;3.03;;;2.00;;
75048;SDS011;63803;53.120;8.764;2022-10-16T01:58:51;2.83;;;2.00;;
75048;SDS011;63803;53.120;8.764;2022-10-16T02:01:21;2.75;;;1.85;;
75048;SDS011;63803;53.120;8.764;2022-10-16T02:03:51;2.83;;;2.10;;
75048;SDS011;63803;53.120;8.764;2022-10-16T02:06:20;3.10;;;1.90;;
75048;SDS011;63803;53.120;8.764;2022-10-16T02:08:46;3.28;;;1.85;;
75048;SDS011;63803;53.120;8.764;2022-10-16T02:11:12;2.22;;;1.90;;
75048;SDS011;63803;53.120;8.764;2022-10-16T02:13:45;2.35;;;1.75;;
75048;SDS011;63803;53.120;8.764;2022-10-16T02:16:16;2.70;;;1.60;;
75048;SDS011;63803;53.120;8.764;2022-10-16T02:18:42;3.30;;;1.80;;
75048;SDS011;63803;53.120;8.764;2022-10-16T02:21:14;2.65;;;1.65;;
75048;SDS011;63803;53.120;8.764;2022-10-16T02:23:51;2.83;;;1.95;;
75048;SDS011;63803;53.120;8.764;2022-10-16T02:26:28;2.20;;;2.00;;
75048;SDS011;63803;53.120;8.764;2022-10-16T02:29:16;2.40;;;1.77;;
75048;SDS011;63803;53.120;8.764;2022-10-16T02:31:45;2.03;;;1.80;;
75048;SDS011;63803;53.120;8.764;2022-10-16T02:34:14;3.78;;;2.10;;
75048;SDS011;63803;53.120;8.764;2022-10-16T02:36:43;3.75;;;2.05;;
75048;SDS011;63803;53.120;8.764;2022-10-16T02:39:11;5.25;;;1.90;;
75048;SDS011;63803;53.120;8.764;2022-10-16T02:41:38;2.45;;;1.50;;
75048;SDS011;63803;53.120;8.764;2022-10-16T02:44:04;2.72;;;1.88;;
75048;SDS011;63803;53.120;8.764;2022-10-16T02:46:29;3.83;;;2.03;;
75048;SDS011;63803;53.120;8.764;2022-10-16T02:48:55;1.63;;;1.52;;
75048;SDS011;63803;53.120;8.764;2022-10-16T02:51:21;3.95;;;1.83;;
75048;SDS011;63803;53.120;8.764;2022-10-16T02:53:47;2.83;;;1.90;;
75048;SDS011;63803;53.120;8.764;2022-10-16T02:56:13;2.33;;;1.80;;
75048;SDS011;63803;53.120;8.764;2022-10-16T02:58:39;2.17;;;1.67;;
75048;SDS011;63803;53.120;8.764;2022-10-16T03:01:04;3.00;;;1.73;;
75048;SDS011;63803;53.120;8.764;2022-10-16T03:03:30;2.50;;;1.77;;
75048;SDS011;63803;53.120;8.764;2022-10-16T03:05:56;3.40;;;1.77;;
75048;SDS011;63803;53.120;8.764;2022-10-16T03:08:22;10.68;;;1.80;;
75048;SDS011;63803;53.120;8.764;2022-10-16T03:10:50;5.15;;;1.55;;
75048;SDS011;63803;53.120;8.764;2022-10-16T03:13:16;1.90;;;1.70;;
75048;SDS011;63803;53.120;8.764;2022-10-16T03:15:43;3.15;;;1.90;;
75048;SDS011;63803;53.120;8.764;2022-10-16T03:18:09;4.50;;;1.80;;
75048;SDS011;63803;53.120;8.764;2022-10-16T03:20:35;2.33;;;1.60;;
75048;SDS011;63803;53.120;8.764;2022-10-16T03:23:00;2.25;;;1.60;;
75048;SDS011;63803;53.120;8.764;2022-10-16T03:25:27;3.33;;;1.50;;
75048;SDS011;63803;53.120;8.764;2022-10-16T03:27:53;1.67;;;1.58;;
75048;SDS011;63803;53.120;8.764;2022-10-16T03:30:19;2.95;;;1.77;;
75048;SDS011;63803;53.120;8.764;2022-10-16T03:32:45;5.40;;;1.90;;
75048;SDS011;63803;53.120;8.764;2022-10-16T03:35:10;2.38;;;1.60;;
75048;SDS011;63803;53.120;8.764;2022-10-16T03:37:36;2.25;;;1.50;;
75048;SDS011;63803;53.120;8.764;2022-10-16T03:40:03;2.78;;;1.85;;
75048;SDS011;63803;53.120;8.764;2022-10-16T03:42:29;1.42;;;1.33;;
75048;SDS011;63803;53.120;8.764;2022-10-16T03:44:55;2.42;;;1.75;;
75048;SDS011;63803;53.120;8.764;2022-10-16T03:47:21;2.55;;;1.70;;
75048;SDS011;63803;53.120;8.764;2022-10-16T03:49:49;2.90;;;1.80;;
75048;SDS011;63803;53.120;8.764;2022-10-16T03:52:15;2.40;;;1.50;;
75048;SDS011;63803;53.120;8.764;2022-10-16T03:54:41;1.83;;;1.45;;
75048;SDS011;63803;53.120;8.764;2022-10-16T03:57:07;1.60;;;1.35;;
75048;SDS011;63803;53.120;8.764;2022-10-16T03:59:32;2.70;;;1.40;;
75048;SDS011;63803;53.120;8.764;2022-10-16T04:01:58;1.95;;;1.40;;
75048;SDS011;63803;53.120;8.764;2022-10-16T04:04:24;2.35;;;1.50;;
75048;SDS011;63803;53.120;8.764;2022-10-16T04:06:50;2.67;;;1.77;;
75048;SDS011;63803;53.120;8.764;2022-10-16T04:09:16;2.22;;;1.55;;
75048;SDS011;63803;53.120;8.764;2022-10-16T04:11:42;4.10;;;1.63;;
75048;SDS011;63803;53.120;8.764;2022-10-16T04:14:08;1.40;;;1.30;;
75048;SDS011;63803;53.120;8.764;2022-10-16T04:16:34;1.35;;;1.25;;
75048;SDS011;63803;53.120;8.764;2022-10-16T04:19:00;2.58;;;1.50;;
75048;SDS011;63803;53.120;8.764;2022-10-16T04:21:25;3.33;;;1.40;;
75048;SDS011;63803;53.120;8.764;2022-10-16T04:23:51;1.85;;;1.30;;
75048;SDS011;63803;53.120;8.764;2022-10-16T04:26:17;5.47;;;1.30;;
75048;SDS011;63803;53.120;8.764;2022-10-16T04:28:43;4.30;;;1.48;;
75048;SDS011;63803;53.120;8.764;2022-10-16T04:31:09;1.40;;;1.27;;
75048;SDS011;63803;53.120;8.764;2022-10-16T04:33:34;1.80;;;1.65;;
75048;SDS011;63803;53.120;8.764;2022-10-16T04:36:00;7.00;;;1.60;;
75048;SDS011;63803;53.120;8.764;2022-10-16T04:38:27;1.52;;;1.42;;
75048;SDS011;63803;53.120;8.764;2022-10-16T04:40:53;3.08;;;1.50;;
75048;SDS011;63803;53.120;8.764;2022-10-16T04:43:19;2.92;;;1.50;;
75048;SDS011;63803;53.120;8.764;2022-10-16T04:45:45;4.60;;;1.75;;
75048;SDS011;63803;53.120;8.764;2022-10-16T04:48:11;3.38;;;1.38;;
75048;SDS011;63803;53.120;8.764;2022-10-16T04:50:37;2.50;;;1.80;;
75048;SDS011;63803;53.120;8.764;2022-10-16T04:53:02;2.88;;;1.63;;
75048;SDS011;63803;53.120;8.764;2022-10-16T04:55:28;3.05;;;1.60;;
75048;SDS011;63803;53.120;8.764;2022-10-16T04:57:54;2.08;;;1.30;;
75048;SDS011;63803;53.120;8.764;2022-10-16T05:00:20;1.67;;;1.40;;
75048;SDS011;63803;53.120;8.764;2022-10-16T05:02:47;1.80;;;1.40;;
75048;SDS011;63803;53.120;8.764;2022-10-16T05:05:14;3.28;;;1.70;;
75048;SDS011;63803;53.120;8.764;2022-10-16T05:07:40;1.60;;;1.40;;
75048;SDS011;63803;53.120;8.764;2022-10-16T05:10:06;2.00;;;1.67;;
75048;SDS011;63803;53.120;8.764;2022-10-16T05:12:32;3.85;;;1.63;;
75048;SDS011;63803;53.120;8.764;2022-10-16T05:14:58;2.78;;;1.60;;
75048;SDS011;63803;53.120;8.764;2022-10-16T05:17:24;2.60;;;1.50;;
75048;SDS011;63803;53.120;8.764;2022-10-16T05:19:51;4.03;;;1.73;;
75048;SDS011;63803;53.120;8.764;2022-10-16T05:22:16;1.70;;;1.40;;
75048;SDS011;63803;53.120;8.764;2022-10-16T05:24:42;2.30;;;1.20;;
75048;SDS011;63803;53.120;8.764;2022-10-16T05:27:08;2.10;;;1.48;;
75048;SDS011;63803;53.120;8.764;2022-10-16T05:29:34;1.65;;;1.50;;
75048;SDS011;63803;53.120;8.764;2022-10-16T05:32:00;2.47;;;1.40;;
75048;SDS011;63803;53.120;8.764;2022-10-16T05:34:26;3.13;;;1.67;;
75048;SDS011;63803;53.120;8.764;2022-10-16T05:36:52;1.83;;;1.30;;
75048;SDS011;63803;53.120;8.764;2022-10-16T05:39:18;3.33;;;1.65;;
75048;SDS011;63803;53.120;8.764;2022-10-16T05:41:44;2.47;;;1.58;;
75048;SDS011;63803;53.120;8.764;2022-10-16T05:44:10;3.33;;;1.67;;
75048;SDS011;63803;53.120;8.764;2022-10-16T05:46:36;3.58;;;1.55;;
75048;SDS011;63803;53.120;8.764;2022-10-16T05:49:02;2.10;;;1.58;;
75048;SDS011;63803;53.120;8.764;2022-10-16T05:51:28;2.47;;;1.63;;
75048;SDS011;63803;53.120;8.764;2022-10-16T05:53:54;4.43;;;1.60;;
75048;SDS011;63803;53.120;8.764;2022-10-16T05:56:20;1.85;;;1.40;;
75048;SDS011;63803;53.120;8.764;2022-10-16T05:58:45;2.55;;;1.63;;
75048;SDS011;63803;53.120;8.764;2022-10-16T06:01:13;2.88;;;1.67;;
75048;SDS011;63803;53.120;8.764;2022-10-16T06:03:41;5.47;;;1.42;;
75048;SDS011;63803;53.120;8.764;2022-10-16T06:06:10;3.45;;;1.85;;
75048;SDS011;63803;53.120;8.764;2022-10-16T06:08:38;4.63;;;1.70;;
75048;SDS011;63803;53.120;8.764;2022-10-16T06:11:09;3.67;;;1.50;;
75048;SDS011;63803;53.120;8.764;2022-10-16T06:13:36;1.52;;;1.35;;
75048;SDS011;63803;53.120;8.764;2022-10-16T06:16:02;2.60;;;1.55;;
75048;SDS011;63803;53.120;8.764;2022-10-16T06:18:29;2.00;;;1.40;;
75048;SDS011;63803;53.120;8.764;2022-10-16T06:20:56;2.03;;;1.40;;
75048;SDS011;63803;53.120;8.764;2022-10-16T06:23:22;3.47;;;1.50;;
75048;SDS011;63803;53.120;8.764;2022-10-16T06:25:48;3.63;;;1.52;;
75048;SDS011;63803;53.120;8.764;2022-10-16T06:28:14;3.17;;;1.58;;
75048;SDS011;63803;53.120;8.764;2022-10-16T06:30:41;3.17;;;1.33;;
75048;SDS011;63803;53.120;8.764;2022-10-16T06:33:09;2.42;;;1.63;;
75048;SDS011;63803;53.120;8.764;2022-10-16T06:35:35;1.45;;;1.35;;
75048;SDS011;63803;53.120;8.764;2022-10-16T06:38:01;1.83;;;1.40;;
75048;SDS011;63803;53.120;8.764;2022-10-16T06:40:27;1.80;;;1.40;;
75048;SDS011;63803;53.120;8.764;2022-10-16T06:42:54;2.33;;;1.50;;
75048;SDS011;63803;53.120;8.764;2022-10-16T06:45:20;4.40;;;1.85;;
75048;SDS011;63803;53.120;8.764;2022-10-16T06:47:46;6.63;;;1.60;;
75048;SDS011;63803;53.120;8.764;2022-10-16T06:50:12;3.53;;;1.73;;
75048;SDS011;63803;53.120;8.764;2022-10-16T06:52:37;2.28;;;1.33;;
75048;SDS011;63803;53.120;8.764;2022-10-16T06:55:03;2.20;;;1.33;;
75048;SDS011;63803;53.120;8.764;2022-10-16T06:57:29;3.20;;;1.40;;
75048;SDS011;63803;53.120;8.764;2022-10-16T06:59:55;3.22;;;1.65;;
75048;SDS011;63803;53.120;8.764;2022-10-16T07:02:21;2.08;;;1.73;;
75048;SDS011;63803;53.120;8.764;2022-10-16T07:04:47;1.48;;;1.35;;
75048;SDS011;63803;53.120;8.764;2022-10-16T07:07:13;2.35;;;1.77;;
75048;SDS011;63803;53.120;8.764;2022-10-16T07:09:39;2.85;;;1.80;;
75048;SDS011;63803;53.120;8.764;2022-10-16T07:12:05;1.88;;;1.45;;
75048;SDS011;63803;53.120;8.764;2022-10-16T07:14:31;4.20;;;2.05;;
75048;SDS011;63803;53.120;8.764;2022-10-16T07:16:57;2.20;;;1.67;;
75048;SDS011;63803;53.120;8.764;2022-10-16T07:19:23;2.60;;;1.50;;
75048;SDS011;63803;53.120;8.764;2022-10-16T07:21:50;3.33;;;1.60;;
75048;SDS011;63803;53.120;8.764;2022-10-16T07:24:16;2.53;;;1.65;;
75048;SDS011;63803;53.120;8.764;2022-10-16T07:26:43;2.70;;;1.52;;
75048;SDS011;63803;53.120;8.764;2022-10-16T07:29:19;5.53;;;1.50;;
75048;SDS011;63803;53.120;8.764;2022-10-16T07:31:46;1.48;;;1.27;;
75048;SDS011;63803;53.120;8.764;2022-10-16T07:34:13;2.58;;;1.70;;
75048;SDS011;63803;53.120;8.764;2022-10-16T07:36:41;1.85;;;1.60;;
75048;SDS011;63803;53.120;8.764;2022-10-16T07:39:07;2.83;;;1.52;;
75048;SDS011;63803;53.120;8.764;2022-10-16T07:41:33;1.50;;;1.40;;
75048;SDS011;63803;53.120;8.764;2022-10-16T07:44:02;2.40;;;1.65;;
75048;SDS011;63803;53.120;8.764;2022-10-16T07:46:28;1.70;;;1.42;;
75048;SDS011;63803;53.120;8.764;2022-10-16T07:48:55;1.83;;;1.50;;
75048;SDS011;63803;53.120;8.764;2022-10-16T07:51:21;2.47;;;1.55;;
75048;SDS011;63803;53.120;8.764;2022-10-16T07:53:48;2.50;;;1.50;;
75048;SDS011;63803;53.120;8.764;2022-10-16T07:56:15;1.58;;;1.48;;
75048;SDS011;63803;53.120;8.764;2022-10-16T07:58:41;2.13;;;1.85;;
75048;SDS011;63803;53.120;8.764;2022-10-16T08:01:09;3.05;;;1.75;;
75048;SDS011;63803;53.120;8.764;2022-10-16T08:03:36;3.85;;;1.40;;
75048;SDS011;63803;53.120;8.764;2022-10-16T08:06:02;3.42;;;1.50;;
75048;SDS011;63803;53.120;8.764;2022-10-16T08:08:28;1.88;;;1.45;;
75048;SDS011;63803;53.120;8.764;2022-10-16T08:10:55;1.33;;;1.23;;
75048;SDS011;63803;53.120;8.764;2022-10-16T08:13:21;4.88;;;1.70;;
75048;SDS011;63803;53.120;8.764;2022-10-16T08:15:46;4.50;;;1.60;;
75048;SDS011;63803;53.120;8.764;2022-10-16T08:18:13;9.80;;;2.20;;
75048;SDS011;63803;53.120;8.764;2022-10-16T08:20:40;11.82;;;2.17;;
75048;SDS011;63803;53.120;8.764;2022-10-16T08:23:08;19.83;;;2.17;;
75048;SDS011;63803;53.120;8.764;2022-10-16T08:25:36;8.65;;;2.47;;
75048;SDS011;63803;53.120;8.764;2022-10-16T08:28:03;6.28;;;2.20;;
75048;SDS011;63803;53.120;8.764;2022-10-16T08:30:31;9.15;;;2.22;;
75048;SDS011;63803;53.120;8.764;2022-10-16T08:32:57;8.57;;;2.30;;
75048;SDS011;63803;53.120;8.764;2022-10-16T08:35:23;7.60;;;2.17;;
75048;SDS011;63803;53.120;8.764;2022-10-16T08:37:49;15.15;;;2.63;;
75048;SDS011;63803;53.120;8.764;2022-10-16T08:40:16;12.18;;;2.35;;
75048;SDS011;63803;53.120;8.764;2022-10-16T08:50:47;13.10;;;2.05;;
75048;SDS011;63803;53.120;8.764;2022-10-16T08:53:16;5.32;;;1.80;;
75048;SDS011;63803;53.120;8.764;2022-10-16T08:55:52;7.10;;;2.30;;
75048;SDS011;63803;53.120;8.764;2022-10-16T08:58:23;8.10;;;2.38;;
75048;SDS011;63803;53.120;8.764;2022-10-16T09:00:54;7.40;;;2.40;;
75048;SDS011;63803;53.120;8.764;2022-10-16T09:03:39;6.28;;;2.28;;
75048;SDS011;63803;53.120;8.764;2022-10-16T09:06:42;9.73;;;2.35;;
75048;SDS011;63803;53.120;8.764;2022-10-16T09:09:21;14.02;;;2.40;;
75048;SDS011;63803;53.120;8.764;2022-10-16T09:14:40;11.18;;;2.47;;
75048;SDS011;63803;53.120;8.764;2022-10-16T09:22:56;6.93;;;2.00;;
75048;SDS011;63803;53.120;8.764;2022-10-16T09:25:46;7.50;;;1.80;;
75048;SDS011;63803;53.120;8.764;2022-10-16T09:28:15;3.75;;;1.95;;
75048;SDS011;63803;53.120;8.764;2022-10-16T09:30:42;10.80;;;1.95;;
75048;SDS011;63803;53.120;8.764;2022-10-16T09:33:09;16.45;;;2.47;;
75048;SDS011;63803;53.120;8.764;2022-10-16T09:38:03;17.70;;;2.58;;
75048;SDS011;63803;53.120;8.764;2022-10-16T09:40:33;14.20;;;2.25;;
75048;SDS011;63803;53.120;8.764;2022-10-16T09:43:24;14.50;;;2.58;;
75048;SDS011;63803;53.120;8.764;2022-10-16T09:46:03;15.25;;;2.10;;
75048;SDS011;63803;53.120;8.764;2022-10-16T09:48:43;19.67;;;1.95;;
75048;SDS011;63803;53.120;8.764;2022-10-16T09:51:18;12.48;;;2.22;;
75048;SDS011;63803;53.120;8.764;2022-10-16T09:53:47;4.78;;;1.73;;
75048;SDS011;63803;53.120;8.764;2022-10-16T09:59:11;10.43;;;1.65;;
75048;SDS011;63803;53.120;8.764;2022-10-16T10:01:48;15.40;;;2.00;;
75048;SDS011;63803;53.120;8.764;2022-10-16T10:04:16;5.00;;;1.45;;
75048;SDS011;63803;53.120;8.764;2022-10-16T10:06:48;9.50;;;1.80;;
75048;SDS011;63803;53.120;8.764;2022-10-16T10:11:58;8.55;;;2.10;;
75048;SDS011;63803;53.120;8.764;2022-10-16T10:14:26;9.00;;;2.00;;
75048;SDS011;63803;53.120;8.764;2022-10-16T10:36:36;13.47;;;2.07;;
75048;SDS011;63803;53.120;8.764;2022-10-16T10:39:06;7.35;;;2.35;;
75048;SDS011;63803;53.120;8.764;2022-10-16T10:41:57;9.88;;;2.17;;
75048;SDS011;63803;53.120;8.764;2022-10-16T10:50:13;384.90;;;91.35;;
75048;SDS011;63803;53.120;8.764;2022-10-16T10:58:41;314.33;;;76.87;;
75048;SDS011;63803;53.120;8.764;2022-10-16T11:04:11;319.10;;;74.95;;
75048;SDS011;63803;53.120;8.764;2022-10-16T11:06:51;311.42;;;76.28;;
75048;SDS011;63803;53.120;8.764;2022-10-16T11:09:24;301.85;;;75.80;;
75048;SDS011;63803;53.120;8.764;2022-10-16T11:14:46;280.98;;;72.15;;
75048;SDS011;63803;53.120;8.764;2022-10-16T11:17:38;251.20;;;65.90;;
75048;SDS011;63803;53.120;8.764;2022-10-16T11:20:13;266.50;;;68.88;;
75048;SDS011;63803;53.120;8.764;2022-10-16T11:22:43;262.75;;;67.53;;
75048;SDS011;63803;53.120;8.764;2022-10-16T11:25:23;267.20;;;68.13;;
75048;SDS011;63803;53.120;8.764;2022-10-16T11:30:49;250.38;;;63.28;;
75048;SDS011;63803;53.120;8.764;2022-10-16T11:41:36;218.20;;;57.15;;
75048;SDS011;63803;53.120;8.764;2022-10-16T11:44:25;200.52;;;52.20;;
75048;SDS011;63803;53.120;8.764;2022-10-16T11:50:02;186.05;;;54.20;;
75048;SDS011;63803;53.120;8.764;2022-10-16T11:55:41;171.60;;;47.47;;
75048;SDS011;63803;53.120;8.764;2022-10-16T11:58:13;175.02;;;47.72;;
75048;SDS011;63803;53.120;8.764;2022-10-16T12:01:33;179.20;;;50.17;;
75048;SDS011;63803;53.120;8.764;2022-10-16T12:04:12;192.32;;;49.90;;
75048;SDS011;63803;53.120;8.764;2022-10-16T12:06:57;166.55;;;45.13;;
75048;SDS011;63803;53.120;8.764;2022-10-16T12:09:30;156.35;;;44.40;;
75048;SDS011;63803;53.120;8.764;2022-10-16T12:11:57;163.32;;;44.10;;
75048;SDS011;63803;53.120;8.764;2022-10-16T12:19:45;157.50;;;40.88;;
75048;SDS011;63803;53.120;8.764;2022-10-16T12:22:23;143.07;;;41.22;;
75048;SDS011;63803;53.120;8.764;2022-10-16T12:24:51;141.00;;;39.13;;
75048;SDS011;63803;53.120;8.764;2022-10-16T12:27:32;134.88;;;38.65;;
75048;SDS011;63803;53.120;8.764;2022-10-16T12:30:03;139.23;;;39.58;;
75048;SDS011;63803;53.120;8.764;2022-10-16T12:32:32;139.48;;;38.03;;
75048;SDS011;63803;53.120;8.764;2022-10-16T12:35:00;107.55;;;34.40;;
75048;SDS011;63803;53.120;8.764;2022-10-16T12:37:28;119.35;;;34.58;;
75048;SDS011;63803;53.120;8.764;2022-10-16T12:39:59;128.05;;;33.75;;
75048;SDS011;63803;53.120;8.764;2022-10-16T12:42:37;111.57;;;32.08;;
75048;SDS011;63803;53.120;8.764;2022-10-16T12:45:21;106.28;;;33.83;;
75048;SDS011;63803;53.120;8.764;2022-10-16T12:47:49;105.70;;;31.33;;
75048;SDS011;63803;53.120;8.764;2022-10-16T12:50:23;101.22;;;31.60;;
75048;SDS011;63803;53.120;8.764;2022-10-16T12:52:51;105.22;;;31.15;;
75048;SDS011;63803;53.120;8.764;2022-10-16T12:55:18;96.05;;;29.52;;
75048;SDS011;63803;53.120;8.764;2022-10-16T13:00:45;96.90;;;28.98;;
75048;SDS011;63803;53.120;8.764;2022-10-16T13:06:10;95.18;;;27.98;;
75048;SDS011;63803;53.120;8.764;2022-10-16T13:08:58;94.03;;;26.92;;
75048;SDS011;63803;53.120;8.764;2022-10-16T13:28:05;84.18;;;24.88;;
75048;SDS011;63803;53.120;8.764;2022-10-16T13:30:43;80.30;;;25.02;;
75048;SDS011;63803;53.120;8.764;2022-10-16T13:33:17;79.38;;;25.02;;
75048;SDS011;63803;53.120;8.764;2022-10-16T13:35:49;79.78;;;24.13;;
75048;SDS011;63803;53.120;8.764;2022-10-16T13:38:20;63.13;;;22.60;;
75048;SDS011;63803;53.120;8.764;2022-10-16T13:40:52;68.18;;;22.40;;
75048;SDS011;63803;53.120;8.764;2022-10-16T13:43:19;74.40;;;21.92;;
75048;SDS011;63803;53.120;8.764;2022-10-16T13:45:58;70.30;;;22.05;;
75048;SDS011;63803;53.120;8.764;2022-10-16T13:48:27;70.18;;;21.30;;
75048;SDS011;63803;53.120;8.764;2022-10-16T13:51:01;67.53;;;21.05;;
75048;SDS011;63803;53.120;8.764;2022-10-16T13:53:29;67.22;;;21.60;;
75048;SDS011;63803;53.120;8.764;2022-10-16T13:55:57;61.45;;;20.20;;
75048;SDS011;63803;53.120;8.764;2022-10-16T13:58:23;62.28;;;20.42;;
75048;SDS011;63803;53.120;8.764;2022-10-16T14:00:55;58.22;;;19.48;;
75048;SDS011;63803;53.120;8.764;2022-10-16T14:03:23;65.57;;;20.27;;
75048;SDS011;63803;53.120;8.764;2022-10-16T14:05:52;55.55;;;18.98;;
75048;SDS011;63803;53.120;8.764;2022-10-16T14:08:20;56.92;;;18.63;;
75048;SDS011;63803;53.120;8.764;2022-10-16T14:10:48;52.95;;;18.65;;
75048;SDS011;63803;53.120;8.764;2022-10-16T14:13:19;60.97;;;19.08;;
75048;SDS011;63803;53.120;8.764;2022-10-16T14:15:51;52.75;;;17.40;;
75048;SDS011;63803;53.120;8.764;2022-10-16T14:18:23;56.45;;;18.05;;
75048;SDS011;63803;53.120;8.764;2022-10-16T14:20:51;45.92;;;18.02;;
75048;SDS011;63803;53.120;8.764;2022-10-16T14:23:28;51.42;;;17.58;;
75048;SDS011;63803;53.120;8.764;2022-10-16T14:31:39;55.75;;;17.30;;
75048;SDS011;63803;53.120;8.764;2022-10-16T14:36:59;50.45;;;16.33;;
75048;SDS011;63803;53.120;8.764;2022-10-16T14:39:27;43.60;;;15.85;;
75048;SDS011;63803;53.120;8.764;2022-10-16T14:41:55;51.55;;;16.90;;
75048;SDS011;63803;53.120;8.764;2022-10-16T14:44:24;45.67;;;15.40;;
75048;SDS011;63803;53.120;8.764;2022-10-16T14:46:54;44.65;;;15.05;;
75048;SDS011;63803;53.120;8.764;2022-10-16T14:49:20;43.47;;;14.43;;
75048;SDS011;63803;53.120;8.764;2022-10-16T14:51:47;39.05;;;13.85;;
75048;SDS011;63803;53.120;8.764;2022-10-16T14:54:14;34.90;;;13.35;;
75048;SDS011;63803;53.120;8.764;2022-10-16T14:56:46;39.08;;;13.68;;
75048;SDS011;63803;53.120;8.764;2022-10-16T14:59:19;40.25;;;13.35;;
75048;SDS011;63803;53.120;8.764;2022-10-16T15:01:51;37.00;;;13.00;;
75048;SDS011;63803;53.120;8.764;2022-10-16T15:04:17;37.50;;;13.15;;
75048;SDS011;63803;53.120;8.764;2022-10-16T15:06:43;35.92;;;12.63;;
75048;SDS011;63803;53.120;8.764;2022-10-16T15:09:10;34.05;;;12.38;;
75048;SDS011;63803;53.120;8.764;2022-10-16T15:11:36;35.55;;;12.02;;
75048;SDS011;63803;53.120;8.764;2022-10-16T15:14:02;32.15;;;11.40;;
75048;SDS011;63803;53.120;8.764;2022-10-16T15:16:28;38.38;;;12.18;;
75048;SDS011;63803;53.120;8.764;2022-10-16T15:18:55;30.15;;;11.60;;
75048;SDS011;63803;53.120;8.764;2022-10-16T15:21:24;37.45;;;11.65;;
75048;SDS011;63803;53.120;8.764;2022-10-16T15:23:52;43.22;;;11.48;;
75048;SDS011;63803;53.120;8.764;2022-10-16T15:26:18;28.33;;;10.60;;
75048;SDS011;63803;53.120;8.764;2022-10-16T15:28:44;33.22;;;10.30;;
75048;SDS011;63803;53.120;8.764;2022-10-16T15:31:10;29.70;;;10.02;;
75048;SDS011;63803;53.120;8.764;2022-10-16T15:33:35;30.48;;;11.43;;
75048;SDS011;63803;53.120;8.764;2022-10-16T15:36:02;27.77;;;9.88;;
75048;SDS011;63803;53.120;8.764;2022-10-16T15:38:28;35.33;;;10.27;;
75048;SDS011;63803;53.120;8.764;2022-10-16T15:40:55;32.75;;;10.45;;
75048;SDS011;63803;53.120;8.764;2022-10-16T15:43:21;25.83;;;9.98;;
75048;SDS011;63803;53.120;8.764;2022-10-16T15:45:52;36.50;;;11.18;;
75048;SDS011;63803;53.120;8.764;2022-10-16T15:48:31;27.38;;;9.18;;
75048;SDS011;63803;53.120;8.764;2022-10-16T15:50:57;29.67;;;9.68;;
75048;SDS011;63803;53.120;8.764;2022-10-16T15:53:24;29.63;;;9.18;;
75048;SDS011;63803;53.120;8.764;2022-10-16T15:55:50;38.13;;;9.82;;
75048;SDS011;63803;53.120;8.764;2022-10-16T15:58:16;37.65;;;9.50;;
75048;SDS011;63803;53.120;8.764;2022-10-16T16:00:42;30.77;;;9.95;;
75048;SDS011;63803;53.120;8.764;2022-10-16T16:03:08;27.35;;;8.77;;
75048;SDS011;63803;53.120;8.764;2022-10-16T16:05:37;29.85;;;9.05;;
75048;SDS011;63803;53.120;8.764;2022-10-16T16:08:04;31.08;;;8.95;;
75048;SDS011;63803;53.120;8.764;2022-10-16T16:10:30;27.42;;;8.40;;
75048;SDS011;63803;53.120;8.764;2022-10-16T16:12:55;22.55;;;9.38;;
75048;SDS011;63803;53.120;8.764;2022-10-16T16:15:22;23.90;;;8.82;;
75048;SDS011;63803;53.120;8.764;2022-10-16T16:17:48;26.80;;;8.35;;
75048;SDS011;63803;53.120;8.764;2022-10-16T16:20:14;26.00;;;8.15;;
75048;SDS011;63803;53.120;8.764;2022-10-16T16:22:40;24.73;;;9.13;;
75048;SDS011;63803;53.120;8.764;2022-10-16T16:25:06;24.40;;;8.77;;
75048;SDS011;63803;53.120;8.764;2022-10-16T16:27:33;26.30;;;7.75;;
75048;SDS011;63803;53.120;8.764;2022-10-16T16:30:00;26.55;;;7.95;;
75048;SDS011;63803;53.120;8.764;2022-10-16T16:32:26;22.55;;;7.80;;
75048;SDS011;63803;53.120;8.764;2022-10-16T16:34:52;24.42;;;7.78;;
75048;SDS011;63803;53.120;8.764;2022-10-16T16:37:18;31.73;;;7.45;;
75048;SDS011;63803;53.120;8.764;2022-10-16T16:39:44;26.75;;;8.38;;
75048;SDS011;63803;53.120;8.764;2022-10-16T16:42:09;22.73;;;7.60;;
75048;SDS011;63803;53.120;8.764;2022-10-16T16:44:35;21.27;;;7.47;;
75048;SDS011;63803;53.120;8.764;2022-10-16T16:47:02;19.98;;;7.45;;
75048;SDS011;63803;53.120;8.764;2022-10-16T16:49:29;19.85;;;7.05;;
75048;SDS011;63803;53.120;8.764;2022-10-16T16:51:55;17.75;;;6.40;;
75048;SDS011;63803;53.120;8.764;2022-10-16T16:54:21;17.65;;;6.75;;